Capitol Logistics 2195

Operating for AJT



KDEN
Denver International Airport
Denver, Colorado
KCVG
Cincinnati/Northern Kentucky International Airport
Covington, Kentucky

Activity Log

Date Flight Route Aircraft Duration
No Flights Yet

Route Details

Aircraft Information
Primary: Boeing 767-300BDSF
Backup: Boeing 757-200SF
Route Data
Distance: 928nm
Duration: 2h 06m
Recm'd Route: EMMYS7 ZIRKL MCK MCI J24 STL ENL SARGO3
Origin Wx: KDEN 141853Z 28007KT 10SM FEW037 SCT050 BKN120 06/M06 A3013 RMK AO2 SLP198 T00561056
Dest. Wx: KCVG 141852Z 22006KT 10SM FEW041 BKN130 BKN250 14/03 A3005 RMK AO2 SLP171 T01440033
Notes: